Delphia, Montana
Current Conditions -  °F | °C
As of 5:00 AM on Wednesday 28 Jan 2015 (Local Time) from KMVH Reporting Station
Few Clouds Few Clouds  
Wind Chill: 41°   Ceiling: Unl
Heat Index: 48°   Visibility: 10mi
Dew Point: 23°   Wind: 22mph
Humidity: 37%   Direction: 320°NW
Pressure: 29.93"   Gusts: 31mph
Location:  46.5044°N, 108.218°W
Report Text: KMVH 281200Z AUTO 32019G27KT 10SM FEW120 09/M05 A2993 RMK A01
Loading
Personal Weather Stations






























Interactive Weather Map New forecast layout! Learn more

10-Day Weather Forecast

Advertisements
Track Severe Weather on mobile